sensor_id;sensor_type;location;lat;lon;timestamp;P1;durP1;ratioP1;P2;durP2;ratioP2
65753;SDS011;69207;47.502;18.940;2023-04-25T00:00:30;1.40;;;1.30;;
65753;SDS011;69207;47.502;18.940;2023-04-25T00:01:34;2.08;;;1.65;;
65753;SDS011;69207;47.502;18.940;2023-04-25T00:02:38;1.50;;;1.40;;
65753;SDS011;69207;47.502;18.940;2023-04-25T00:03:41;1.55;;;1.45;;
65753;SDS011;69207;47.502;18.940;2023-04-25T00:04:45;1.60;;;1.50;;
65753;SDS011;69207;47.502;18.940;2023-04-25T00:05:49;1.30;;;1.20;;
65753;SDS011;69207;47.502;18.940;2023-04-25T00:06:54;1.52;;;1.40;;
65753;SDS011;69207;47.502;18.940;2023-04-25T00:07:58;3.62;;;1.95;;
65753;SDS011;69207;47.502;18.940;2023-04-25T00:09:01;3.15;;;1.48;;
65753;SDS011;69207;47.502;18.940;2023-04-25T00:10:06;1.60;;;1.50;;
65753;SDS011;69207;47.502;18.940;2023-04-25T00:11:09;1.60;;;1.40;;
65753;SDS011;69207;47.502;18.940;2023-04-25T00:12:13;1.65;;;1.55;;
65753;SDS011;69207;47.502;18.940;2023-04-25T00:13:16;2.00;;;1.75;;
65753;SDS011;69207;47.502;18.940;2023-04-25T00:14:19;1.75;;;1.65;;
65753;SDS011;69207;47.502;18.940;2023-04-25T00:15:22;3.30;;;1.65;;
65753;SDS011;69207;47.502;18.940;2023-04-25T00:16:26;2.58;;;1.75;;
65753;SDS011;69207;47.502;18.940;2023-04-25T00:17:31;1.70;;;1.60;;
65753;SDS011;69207;47.502;18.940;2023-04-25T00:18:35;3.05;;;1.65;;
65753;SDS011;69207;47.502;18.940;2023-04-25T00:19:39;1.50;;;1.40;;
65753;SDS011;69207;47.502;18.940;2023-04-25T00:20:42;2.00;;;1.75;;
65753;SDS011;69207;47.502;18.940;2023-04-25T00:21:49;1.92;;;1.73;;
65753;SDS011;69207;47.502;18.940;2023-04-25T00:22:52;1.58;;;1.37;;
65753;SDS011;69207;47.502;18.940;2023-04-25T00:23:55;2.65;;;1.50;;
65753;SDS011;69207;47.502;18.940;2023-04-25T00:24:58;1.40;;;1.30;;
65753;SDS011;69207;47.502;18.940;2023-04-25T00:26:02;2.17;;;1.80;;
65753;SDS011;69207;47.502;18.940;2023-04-25T00:27:05;1.48;;;1.27;;
65753;SDS011;69207;47.502;18.940;2023-04-25T00:28:08;1.95;;;1.83;;
65753;SDS011;69207;47.502;18.940;2023-04-25T00:29:11;2.05;;;1.48;;
65753;SDS011;69207;47.502;18.940;2023-04-25T00:30:15;2.95;;;1.70;;
65753;SDS011;69207;47.502;18.940;2023-04-25T00:31:18;1.60;;;1.48;;
65753;SDS011;69207;47.502;18.940;2023-04-25T00:32:21;3.35;;;1.73;;
65753;SDS011;69207;47.502;18.940;2023-04-25T00:33:24;2.78;;;1.83;;
65753;SDS011;69207;47.502;18.940;2023-04-25T00:34:27;1.98;;;1.77;;
65753;SDS011;69207;47.502;18.940;2023-04-25T00:35:30;3.03;;;1.83;;
65753;SDS011;69207;47.502;18.940;2023-04-25T00:36:34;2.00;;;1.80;;
65753;SDS011;69207;47.502;18.940;2023-04-25T00:37:38;2.15;;;1.67;;
65753;SDS011;69207;47.502;18.940;2023-04-25T00:38:41;2.12;;;1.80;;
65753;SDS011;69207;47.502;18.940;2023-04-25T00:39:44;2.65;;;2.10;;
65753;SDS011;69207;47.502;18.940;2023-04-25T00:40:47;2.00;;;1.73;;
65753;SDS011;69207;47.502;18.940;2023-04-25T00:41:50;1.70;;;1.60;;
65753;SDS011;69207;47.502;18.940;2023-04-25T00:42:55;3.15;;;2.00;;
65753;SDS011;69207;47.502;18.940;2023-04-25T00:43:59;2.17;;;1.98;;
65753;SDS011;69207;47.502;18.940;2023-04-25T00:45:04;2.83;;;2.00;;
65753;SDS011;69207;47.502;18.940;2023-04-25T00:46:09;3.45;;;2.25;;
65753;SDS011;69207;47.502;18.940;2023-04-25T00:47:12;2.15;;;1.95;;
65753;SDS011;69207;47.502;18.940;2023-04-25T00:48:16;2.50;;;2.20;;
65753;SDS011;69207;47.502;18.940;2023-04-25T00:49:20;3.67;;;2.40;;
65753;SDS011;69207;47.502;18.940;2023-04-25T00:50:23;3.40;;;2.22;;
65753;SDS011;69207;47.502;18.940;2023-04-25T00:51:26;2.35;;;2.15;;
65753;SDS011;69207;47.502;18.940;2023-04-25T00:52:30;3.78;;;2.42;;
65753;SDS011;69207;47.502;18.940;2023-04-25T00:53:33;8.02;;;2.28;;
65753;SDS011;69207;47.502;18.940;2023-04-25T00:54:36;4.03;;;2.30;;
65753;SDS011;69207;47.502;18.940;2023-04-25T00:55:39;3.75;;;2.20;;
65753;SDS011;69207;47.502;18.940;2023-04-25T00:56:42;2.92;;;2.47;;
65753;SDS011;69207;47.502;18.940;2023-04-25T00:57:48;3.42;;;2.20;;
65753;SDS011;69207;47.502;18.940;2023-04-25T00:58:53;2.25;;;2.03;;
65753;SDS011;69207;47.502;18.940;2023-04-25T00:59:59;3.20;;;2.20;;
65753;SDS011;69207;47.502;18.940;2023-04-25T01:01:03;2.37;;;2.00;;
65753;SDS011;69207;47.502;18.940;2023-04-25T01:02:07;3.55;;;2.40;;
65753;SDS011;69207;47.502;18.940;2023-04-25T01:03:12;3.58;;;2.28;;
65753;SDS011;69207;47.502;18.940;2023-04-25T01:04:20;2.60;;;2.40;;
65753;SDS011;69207;47.502;18.940;2023-04-25T01:05:23;3.33;;;2.62;;
65753;SDS011;69207;47.502;18.940;2023-04-25T01:06:26;3.55;;;2.83;;
65753;SDS011;69207;47.502;18.940;2023-04-25T01:07:30;3.15;;;2.47;;
65753;SDS011;69207;47.502;18.940;2023-04-25T01:08:33;2.92;;;2.62;;
65753;SDS011;69207;47.502;18.940;2023-04-25T01:09:37;4.22;;;2.83;;
65753;SDS011;69207;47.502;18.940;2023-04-25T01:10:40;4.05;;;2.80;;
65753;SDS011;69207;47.502;18.940;2023-04-25T01:11:43;4.35;;;2.55;;
65753;SDS011;69207;47.502;18.940;2023-04-25T01:12:47;3.03;;;2.30;;
65753;SDS011;69207;47.502;18.940;2023-04-25T01:13:50;4.25;;;2.75;;
65753;SDS011;69207;47.502;18.940;2023-04-25T01:14:54;3.67;;;2.70;;
65753;SDS011;69207;47.502;18.940;2023-04-25T01:15:58;6.30;;;2.92;;
65753;SDS011;69207;47.502;18.940;2023-04-25T01:17:01;2.90;;;2.60;;
65753;SDS011;69207;47.502;18.940;2023-04-25T01:18:04;2.87;;;2.60;;
65753;SDS011;69207;47.502;18.940;2023-04-25T01:19:09;4.07;;;2.92;;
65753;SDS011;69207;47.502;18.940;2023-04-25T01:20:15;4.40;;;2.87;;
65753;SDS011;69207;47.502;18.940;2023-04-25T01:21:18;4.45;;;3.05;;
65753;SDS011;69207;47.502;18.940;2023-04-25T01:22:22;3.78;;;2.90;;
65753;SDS011;69207;47.502;18.940;2023-04-25T01:23:25;3.00;;;2.65;;
65753;SDS011;69207;47.502;18.940;2023-04-25T01:24:28;3.20;;;2.22;;
65753;SDS011;69207;47.502;18.940;2023-04-25T01:25:31;5.35;;;2.83;;
65753;SDS011;69207;47.502;18.940;2023-04-25T01:26:34;3.20;;;2.47;;
65753;SDS011;69207;47.502;18.940;2023-04-25T01:27:38;3.72;;;3.03;;
65753;SDS011;69207;47.502;18.940;2023-04-25T01:28:44;2.62;;;2.20;;
65753;SDS011;69207;47.502;18.940;2023-04-25T01:29:47;3.08;;;2.65;;
65753;SDS011;69207;47.502;18.940;2023-04-25T01:30:51;2.40;;;2.20;;
65753;SDS011;69207;47.502;18.940;2023-04-25T01:31:55;5.57;;;2.62;;
65753;SDS011;69207;47.502;18.940;2023-04-25T01:32:59;2.78;;;2.50;;
65753;SDS011;69207;47.502;18.940;2023-04-25T01:34:03;3.15;;;2.33;;
65753;SDS011;69207;47.502;18.940;2023-04-25T01:35:07;5.53;;;2.80;;
65753;SDS011;69207;47.502;18.940;2023-04-25T01:36:12;4.35;;;2.62;;
65753;SDS011;69207;47.502;18.940;2023-04-25T01:37:17;4.18;;;2.55;;
65753;SDS011;69207;47.502;18.940;2023-04-25T01:38:20;8.25;;;2.70;;
65753;SDS011;69207;47.502;18.940;2023-04-25T01:39:23;2.50;;;2.30;;
65753;SDS011;69207;47.502;18.940;2023-04-25T01:40:27;3.33;;;2.58;;
65753;SDS011;69207;47.502;18.940;2023-04-25T01:41:30;3.50;;;2.62;;
65753;SDS011;69207;47.502;18.940;2023-04-25T01:42:34;4.28;;;2.97;;
65753;SDS011;69207;47.502;18.940;2023-04-25T01:43:39;3.12;;;2.83;;
65753;SDS011;69207;47.502;18.940;2023-04-25T01:44:42;4.12;;;2.92;;
65753;SDS011;69207;47.502;18.940;2023-04-25T01:45:45;4.03;;;2.55;;
65753;SDS011;69207;47.502;18.940;2023-04-25T01:46:49;3.33;;;2.37;;
65753;SDS011;69207;47.502;18.940;2023-04-25T01:47:52;5.12;;;2.30;;
65753;SDS011;69207;47.502;18.940;2023-04-25T01:48:55;4.25;;;2.42;;
65753;SDS011;69207;47.502;18.940;2023-04-25T01:49:58;3.17;;;2.53;;
65753;SDS011;69207;47.502;18.940;2023-04-25T01:51:00;2.53;;;2.33;;
65753;SDS011;69207;47.502;18.940;2023-04-25T01:52:04;3.58;;;2.90;;
65753;SDS011;69207;47.502;18.940;2023-04-25T01:53:07;3.03;;;2.33;;
65753;SDS011;69207;47.502;18.940;2023-04-25T01:54:13;2.83;;;2.50;;
65753;SDS011;69207;47.502;18.940;2023-04-25T01:55:16;3.35;;;2.55;;
65753;SDS011;69207;47.502;18.940;2023-04-25T01:56:19;4.15;;;2.80;;
65753;SDS011;69207;47.502;18.940;2023-04-25T01:57:22;3.28;;;2.53;;
65753;SDS011;69207;47.502;18.940;2023-04-25T01:58:25;3.75;;;2.70;;
65753;SDS011;69207;47.502;18.940;2023-04-25T01:59:28;4.93;;;2.53;;
65753;SDS011;69207;47.502;18.940;2023-04-25T02:00:32;5.28;;;2.67;;
65753;SDS011;69207;47.502;18.940;2023-04-25T02:01:35;2.65;;;2.45;;
65753;SDS011;69207;47.502;18.940;2023-04-25T02:02:38;2.95;;;2.55;;
65753;SDS011;69207;47.502;18.940;2023-04-25T02:03:42;4.10;;;3.42;;
65753;SDS011;69207;47.502;18.940;2023-04-25T02:04:46;2.60;;;2.40;;
65753;SDS011;69207;47.502;18.940;2023-04-25T02:05:49;5.95;;;2.90;;
65753;SDS011;69207;47.502;18.940;2023-04-25T02:06:52;4.95;;;2.42;;
65753;SDS011;69207;47.502;18.940;2023-04-25T02:07:55;3.30;;;2.37;;
65753;SDS011;69207;47.502;18.940;2023-04-25T02:08:58;2.85;;;2.37;;
65753;SDS011;69207;47.502;18.940;2023-04-25T02:10:01;3.90;;;2.42;;
65753;SDS011;69207;47.502;18.940;2023-04-25T02:11:04;2.80;;;2.30;;
65753;SDS011;69207;47.502;18.940;2023-04-25T02:12:09;3.30;;;2.30;;
65753;SDS011;69207;47.502;18.940;2023-04-25T02:13:12;4.45;;;2.45;;
65753;SDS011;69207;47.502;18.940;2023-04-25T02:14:15;4.80;;;2.70;;
65753;SDS011;69207;47.502;18.940;2023-04-25T02:15:18;4.65;;;2.60;;
65753;SDS011;69207;47.502;18.940;2023-04-25T02:16:21;2.78;;;2.53;;
65753;SDS011;69207;47.502;18.940;2023-04-25T02:17:24;2.90;;;2.17;;
65753;SDS011;69207;47.502;18.940;2023-04-25T02:18:28;4.70;;;2.62;;
65753;SDS011;69207;47.502;18.940;2023-04-25T02:19:31;4.55;;;2.65;;
65753;SDS011;69207;47.502;18.940;2023-04-25T02:20:34;4.87;;;2.35;;
65753;SDS011;69207;47.502;18.940;2023-04-25T02:21:37;2.53;;;2.22;;
65753;SDS011;69207;47.502;18.940;2023-04-25T02:22:41;2.47;;;2.28;;
65753;SDS011;69207;47.502;18.940;2023-04-25T02:23:44;3.33;;;2.20;;
65753;SDS011;69207;47.502;18.940;2023-04-25T02:24:52;3.92;;;2.40;;
65753;SDS011;69207;47.502;18.940;2023-04-25T02:25:56;2.60;;;2.40;;
65753;SDS011;69207;47.502;18.940;2023-04-25T02:27:00;3.42;;;2.30;;
65753;SDS011;69207;47.502;18.940;2023-04-25T02:28:03;3.37;;;2.30;;
65753;SDS011;69207;47.502;18.940;2023-04-25T02:29:06;5.22;;;2.47;;
65753;SDS011;69207;47.502;18.940;2023-04-25T02:30:09;2.40;;;2.15;;
65753;SDS011;69207;47.502;18.940;2023-04-25T02:31:14;3.35;;;2.62;;
65753;SDS011;69207;47.502;18.940;2023-04-25T02:32:17;3.30;;;2.25;;
65753;SDS011;69207;47.502;18.940;2023-04-25T02:33:20;5.10;;;2.70;;
65753;SDS011;69207;47.502;18.940;2023-04-25T02:34:24;2.80;;;2.50;;
65753;SDS011;69207;47.502;18.940;2023-04-25T02:35:26;2.92;;;2.62;;
65753;SDS011;69207;47.502;18.940;2023-04-25T02:36:30;3.55;;;2.40;;
65753;SDS011;69207;47.502;18.940;2023-04-25T02:37:37;2.30;;;2.10;;
65753;SDS011;69207;47.502;18.940;2023-04-25T02:38:41;4.15;;;2.30;;
65753;SDS011;69207;47.502;18.940;2023-04-25T02:39:44;2.30;;;2.10;;
65753;SDS011;69207;47.502;18.940;2023-04-25T02:40:47;3.58;;;2.67;;
65753;SDS011;69207;47.502;18.940;2023-04-25T02:41:50;2.80;;;2.50;;
65753;SDS011;69207;47.502;18.940;2023-04-25T02:42:54;2.62;;;2.40;;
65753;SDS011;69207;47.502;18.940;2023-04-25T02:43:57;2.65;;;2.37;;
65753;SDS011;69207;47.502;18.940;2023-04-25T02:45:00;2.50;;;2.30;;
65753;SDS011;69207;47.502;18.940;2023-04-25T02:46:04;3.45;;;2.78;;
65753;SDS011;69207;47.502;18.940;2023-04-25T02:47:07;3.47;;;2.47;;
65753;SDS011;69207;47.502;18.940;2023-04-25T02:48:11;2.90;;;2.33;;
65753;SDS011;69207;47.502;18.940;2023-04-25T02:49:14;4.93;;;2.65;;
65753;SDS011;69207;47.502;18.940;2023-04-25T02:50:17;2.60;;;2.40;;
65753;SDS011;69207;47.502;18.940;2023-04-25T02:51:21;4.57;;;2.42;;
65753;SDS011;69207;47.502;18.940;2023-04-25T02:52:24;2.70;;;2.50;;
65753;SDS011;69207;47.502;18.940;2023-04-25T02:53:27;4.00;;;2.58;;
65753;SDS011;69207;47.502;18.940;2023-04-25T02:54:30;3.92;;;2.37;;
65753;SDS011;69207;47.502;18.940;2023-04-25T02:55:34;4.07;;;3.05;;
65753;SDS011;69207;47.502;18.940;2023-04-25T02:56:37;4.40;;;2.83;;
65753;SDS011;69207;47.502;18.940;2023-04-25T02:57:40;2.87;;;2.37;;
65753;SDS011;69207;47.502;18.940;2023-04-25T02:58:43;3.67;;;2.80;;
65753;SDS011;69207;47.502;18.940;2023-04-25T02:59:46;3.25;;;2.85;;
65753;SDS011;69207;47.502;18.940;2023-04-25T03:00:49;3.70;;;2.90;;
65753;SDS011;69207;47.502;18.940;2023-04-25T03:01:53;2.75;;;2.40;;
65753;SDS011;69207;47.502;18.940;2023-04-25T03:02:56;5.10;;;2.83;;
65753;SDS011;69207;47.502;18.940;2023-04-25T03:03:59;3.30;;;2.60;;
65753;SDS011;69207;47.502;18.940;2023-04-25T03:05:02;4.70;;;2.70;;
65753;SDS011;69207;47.502;18.940;2023-04-25T03:06:05;3.22;;;2.53;;
65753;SDS011;69207;47.502;18.940;2023-04-25T03:07:08;4.20;;;3.17;;
65753;SDS011;69207;47.502;18.940;2023-04-25T03:08:12;5.28;;;2.67;;
65753;SDS011;69207;47.502;18.940;2023-04-25T03:09:15;3.58;;;2.67;;
65753;SDS011;69207;47.502;18.940;2023-04-25T03:10:18;4.25;;;3.22;;
65753;SDS011;69207;47.502;18.940;2023-04-25T03:11:21;3.62;;;2.42;;
65753;SDS011;69207;47.502;18.940;2023-04-25T03:12:24;2.70;;;2.45;;
65753;SDS011;69207;47.502;18.940;2023-04-25T03:13:27;4.25;;;2.65;;
65753;SDS011;69207;47.502;18.940;2023-04-25T03:14:32;3.97;;;2.60;;
65753;SDS011;69207;47.502;18.940;2023-04-25T03:15:35;3.15;;;2.40;;
65753;SDS011;69207;47.502;18.940;2023-04-25T03:16:39;2.65;;;2.40;;
65753;SDS011;69207;47.502;18.940;2023-04-25T03:17:42;4.12;;;2.60;;
65753;SDS011;69207;47.502;18.940;2023-04-25T03:18:46;2.92;;;2.60;;
65753;SDS011;69207;47.502;18.940;2023-04-25T03:19:49;3.70;;;2.70;;
65753;SDS011;69207;47.502;18.940;2023-04-25T03:20:52;3.12;;;2.45;;
65753;SDS011;69207;47.502;18.940;2023-04-25T03:21:55;6.47;;;3.17;;
65753;SDS011;69207;47.502;18.940;2023-04-25T03:22:58;3.03;;;2.58;;
65753;SDS011;69207;47.502;18.940;2023-04-25T03:24:02;3.62;;;2.62;;
65753;SDS011;69207;47.502;18.940;2023-04-25T03:25:06;6.50;;;2.40;;
65753;SDS011;69207;47.502;18.940;2023-04-25T03:26:10;2.83;;;2.53;;
65753;SDS011;69207;47.502;18.940;2023-04-25T03:27:13;4.00;;;2.70;;
65753;SDS011;69207;47.502;18.940;2023-04-25T03:28:16;3.03;;;2.60;;
65753;SDS011;69207;47.502;18.940;2023-04-25T03:29:19;3.60;;;3.10;;
65753;SDS011;69207;47.502;18.940;2023-04-25T03:30:27;3.00;;;2.60;;
65753;SDS011;69207;47.502;18.940;2023-04-25T03:31:30;3.65;;;2.90;;
65753;SDS011;69207;47.502;18.940;2023-04-25T03:32:34;3.58;;;2.85;;
65753;SDS011;69207;47.502;18.940;2023-04-25T03:33:37;2.83;;;2.42;;
65753;SDS011;69207;47.502;18.940;2023-04-25T03:34:40;4.93;;;2.83;;
65753;SDS011;69207;47.502;18.940;2023-04-25T03:35:43;3.42;;;3.00;;
65753;SDS011;69207;47.502;18.940;2023-04-25T03:36:46;3.60;;;2.97;;
65753;SDS011;69207;47.502;18.940;2023-04-25T03:37:50;3.78;;;2.78;;
65753;SDS011;69207;47.502;18.940;2023-04-25T03:38:53;3.10;;;2.80;;
65753;SDS011;69207;47.502;18.940;2023-04-25T03:39:56;4.18;;;3.10;;
65753;SDS011;69207;47.502;18.940;2023-04-25T03:40:59;4.47;;;2.90;;
65753;SDS011;69207;47.502;18.940;2023-04-25T03:42:03;3.75;;;2.95;;
65753;SDS011;69207;47.502;18.940;2023-04-25T03:43:06;3.20;;;2.90;;
65753;SDS011;69207;47.502;18.940;2023-04-25T03:44:09;3.30;;;2.80;;
65753;SDS011;69207;47.502;18.940;2023-04-25T03:45:12;4.00;;;2.97;;
65753;SDS011;69207;47.502;18.940;2023-04-25T03:46:15;4.87;;;2.62;;
65753;SDS011;69207;47.502;18.940;2023-04-25T03:47:18;3.40;;;2.90;;
65753;SDS011;69207;47.502;18.940;2023-04-25T03:48:21;2.83;;;2.45;;
65753;SDS011;69207;47.502;18.940;2023-04-25T03:49:27;3.00;;;2.70;;
65753;SDS011;69207;47.502;18.940;2023-04-25T03:50:30;3.53;;;2.75;;
65753;SDS011;69207;47.502;18.940;2023-04-25T03:51:33;3.58;;;2.90;;
65753;SDS011;69207;47.502;18.940;2023-04-25T03:52:36;3.75;;;2.90;;
65753;SDS011;69207;47.502;18.940;2023-04-25T03:53:39;3.90;;;3.03;;
65753;SDS011;69207;47.502;18.940;2023-04-25T03:54:42;3.62;;;2.70;;
65753;SDS011;69207;47.502;18.940;2023-04-25T03:55:45;3.78;;;2.60;;
65753;SDS011;69207;47.502;18.940;2023-04-25T03:56:48;3.83;;;3.12;;
65753;SDS011;69207;47.502;18.940;2023-04-25T03:57:51;3.47;;;2.90;;
65753;SDS011;69207;47.502;18.940;2023-04-25T03:58:56;3.42;;;3.12;;
65753;SDS011;69207;47.502;18.940;2023-04-25T03:59:59;5.47;;;2.75;;
65753;SDS011;69207;47.502;18.940;2023-04-25T04:01:02;4.03;;;3.08;;
65753;SDS011;69207;47.502;18.940;2023-04-25T04:02:10;3.12;;;2.70;;
65753;SDS011;69207;47.502;18.940;2023-04-25T04:03:13;3.42;;;2.90;;
65753;SDS011;69207;47.502;18.940;2023-04-25T04:04:17;3.40;;;3.10;;
65753;SDS011;69207;47.502;18.940;2023-04-25T04:05:21;3.25;;;2.92;;
65753;SDS011;69207;47.502;18.940;2023-04-25T04:06:24;3.47;;;3.10;;
65753;SDS011;69207;47.502;18.940;2023-04-25T04:07:27;3.00;;;2.67;;
65753;SDS011;69207;47.502;18.940;2023-04-25T04:08:31;4.00;;;3.12;;
65753;SDS011;69207;47.502;18.940;2023-04-25T04:09:35;4.05;;;2.67;;
65753;SDS011;69207;47.502;18.940;2023-04-25T04:10:38;5.12;;;2.62;;
65753;SDS011;69207;47.502;18.940;2023-04-25T04:11:41;3.67;;;3.00;;
65753;SDS011;69207;47.502;18.940;2023-04-25T04:12:44;4.15;;;2.90;;
65753;SDS011;69207;47.502;18.940;2023-04-25T04:13:47;2.80;;;2.50;;
65753;SDS011;69207;47.502;18.940;2023-04-25T04:14:50;5.07;;;3.47;;
65753;SDS011;69207;47.502;18.940;2023-04-25T04:15:53;3.10;;;2.80;;
65753;SDS011;69207;47.502;18.940;2023-04-25T04:16:56;3.58;;;3.22;;
65753;SDS011;69207;47.502;18.940;2023-04-25T04:17:59;3.65;;;2.60;;
65753;SDS011;69207;47.502;18.940;2023-04-25T04:19:06;3.85;;;2.85;;
65753;SDS011;69207;47.502;18.940;2023-04-25T04:20:09;3.62;;;3.05;;
65753;SDS011;69207;47.502;18.940;2023-04-25T04:21:14;4.47;;;3.05;;
65753;SDS011;69207;47.502;18.940;2023-04-25T04:22:17;4.43;;;2.90;;
65753;SDS011;69207;47.502;18.940;2023-04-25T04:23:20;2.97;;;2.67;;
65753;SDS011;69207;47.502;18.940;2023-04-25T04:24:25;3.65;;;2.70;;
65753;SDS011;69207;47.502;18.940;2023-04-25T04:25:28;3.83;;;2.55;;
65753;SDS011;69207;47.502;18.940;2023-04-25T04:26:31;5.28;;;3.28;;
65753;SDS011;69207;47.502;18.940;2023-04-25T04:27:35;4.30;;;3.15;;
65753;SDS011;69207;47.502;18.940;2023-04-25T04:28:38;3.72;;;2.92;;
65753;SDS011;69207;47.502;18.940;2023-04-25T04:29:41;4.32;;;3.05;;
65753;SDS011;69207;47.502;18.940;2023-04-25T04:30:44;4.30;;;3.30;;
65753;SDS011;69207;47.502;18.940;2023-04-25T04:31:50;3.75;;;3.35;;
65753;SDS011;69207;47.502;18.940;2023-04-25T04:32:53;3.22;;;2.80;;
65753;SDS011;69207;47.502;18.940;2023-04-25T04:33:56;3.67;;;3.05;;
65753;SDS011;69207;47.502;18.940;2023-04-25T04:34:59;3.47;;;2.90;;
65753;SDS011;69207;47.502;18.940;2023-04-25T04:36:03;4.30;;;2.80;;
65753;SDS011;69207;47.502;18.940;2023-04-25T04:37:06;4.28;;;3.10;;
65753;SDS011;69207;47.502;18.940;2023-04-25T04:38:09;4.10;;;2.85;;
65753;SDS011;69207;47.502;18.940;2023-04-25T04:39:14;5.43;;;2.70;;
65753;SDS011;69207;47.502;18.940;2023-04-25T04:40:17;3.83;;;2.70;;
65753;SDS011;69207;47.502;18.940;2023-04-25T04:41:21;4.30;;;2.95;;
65753;SDS011;69207;47.502;18.940;2023-04-25T04:42:23;3.30;;;2.95;;
65753;SDS011;69207;47.502;18.940;2023-04-25T04:43:27;3.42;;;3.03;;
65753;SDS011;69207;47.502;18.940;2023-04-25T04:44:31;6.07;;;3.12;;
65753;SDS011;69207;47.502;18.940;2023-04-25T04:45:37;4.15;;;3.00;;
65753;SDS011;69207;47.502;18.940;2023-04-25T04:46:43;3.28;;;2.78;;
65753;SDS011;69207;47.502;18.940;2023-04-25T04:47:47;4.43;;;2.80;;
65753;SDS011;69207;47.502;18.940;2023-04-25T04:48:51;3.70;;;3.15;;
65753;SDS011;69207;47.502;18.940;2023-04-25T04:49:55;3.40;;;2.92;;
65753;SDS011;69207;47.502;18.940;2023-04-25T04:50:58;6.35;;;2.78;;
65753;SDS011;69207;47.502;18.940;2023-04-25T04:52:01;3.22;;;2.87;;
65753;SDS011;69207;47.502;18.940;2023-04-25T04:53:04;4.60;;;3.42;;
65753;SDS011;69207;47.502;18.940;2023-04-25T04:54:11;3.20;;;2.85;;
65753;SDS011;69207;47.502;18.940;2023-04-25T04:55:14;3.58;;;2.83;;
65753;SDS011;69207;47.502;18.940;2023-04-25T04:56:17;3.90;;;2.83;;
65753;SDS011;69207;47.502;18.940;2023-04-25T04:57:20;5.22;;;3.20;;
65753;SDS011;69207;47.502;18.940;2023-04-25T04:58:23;3.72;;;2.83;;
65753;SDS011;69207;47.502;18.940;2023-04-25T04:59:26;4.60;;;3.15;;
65753;SDS011;69207;47.502;18.940;2023-04-25T05:00:29;5.70;;;2.95;;
65753;SDS011;69207;47.502;18.940;2023-04-25T05:01:32;3.75;;;3.00;;
65753;SDS011;69207;47.502;18.940;2023-04-25T05:02:38;3.92;;;2.90;;
65753;SDS011;69207;47.502;18.940;2023-04-25T05:03:42;4.53;;;3.30;;
65753;SDS011;69207;47.502;18.940;2023-04-25T05:04:45;5.20;;;2.97;;
65753;SDS011;69207;47.502;18.940;2023-04-25T05:05:48;3.87;;;3.15;;
65753;SDS011;69207;47.502;18.940;2023-04-25T05:06:51;6.68;;;2.80;;
65753;SDS011;69207;47.502;18.940;2023-04-25T05:07:54;4.12;;;2.78;;
65753;SDS011;69207;47.502;18.940;2023-04-25T05:08:57;4.50;;;3.25;;
65753;SDS011;69207;47.502;18.940;2023-04-25T05:10:02;3.72;;;3.00;;
65753;SDS011;69207;47.502;18.940;2023-04-25T05:11:06;4.22;;;2.87;;
65753;SDS011;69207;47.502;18.940;2023-04-25T05:12:09;3.83;;;3.08;;
65753;SDS011;69207;47.502;18.940;2023-04-25T05:13:12;4.53;;;3.00;;
65753;SDS011;69207;47.502;18.940;2023-04-25T05:14:15;4.22;;;3.08;;
65753;SDS011;69207;47.502;18.940;2023-04-25T05:15:19;5.30;;;3.15;;
65753;SDS011;69207;47.502;18.940;2023-04-25T05:16:22;3.10;;;2.80;;
65753;SDS011;69207;47.502;18.940;2023-04-25T05:17:25;3.35;;;2.90;;
65753;SDS011;69207;47.502;18.940;2023-04-25T05:18:28;2.95;;;2.67;;
65753;SDS011;69207;47.502;18.940;2023-04-25T05:19:32;7.90;;;2.87;;
65753;SDS011;69207;47.502;18.940;2023-04-25T05:20:35;3.65;;;2.85;;
65753;SDS011;69207;47.502;18.940;2023-04-25T05:21:38;5.10;;;3.08;;
65753;SDS011;69207;47.502;18.940;2023-04-25T05:22:41;4.55;;;2.97;;
65753;SDS011;69207;47.502;18.940;2023-04-25T05:23:44;3.33;;;2.90;;
65753;SDS011;69207;47.502;18.940;2023-04-25T05:24:47;3.37;;;2.60;;
65753;SDS011;69207;47.502;18.940;2023-04-25T05:25:50;4.47;;;3.15;;
65753;SDS011;69207;47.502;18.940;2023-04-25T05:26:53;5.50;;;3.12;;
65753;SDS011;69207;47.502;18.940;2023-04-25T05:27:56;3.42;;;2.50;;
65753;SDS011;69207;47.502;18.940;2023-04-25T05:29:00;3.90;;;3.08;;
65753;SDS011;69207;47.502;18.940;2023-04-25T05:30:03;3.22;;;2.80;;
65753;SDS011;69207;47.502;18.940;2023-04-25T05:31:09;4.62;;;3.10;;
65753;SDS011;69207;47.502;18.940;2023-04-25T05:32:13;5.40;;;3.22;;
65753;SDS011;69207;47.502;18.940;2023-04-25T05:33:16;3.80;;;3.12;;
65753;SDS011;69207;47.502;18.940;2023-04-25T05:34:19;3.45;;;2.97;;
65753;SDS011;69207;47.502;18.940;2023-04-25T05:35:22;4.18;;;2.97;;
65753;SDS011;69207;47.502;18.940;2023-04-25T05:36:25;3.60;;;2.92;;
65753;SDS011;69207;47.502;18.940;2023-04-25T05:37:28;4.32;;;3.03;;
65753;SDS011;69207;47.502;18.940;2023-04-25T05:38:33;3.33;;;2.80;;
65753;SDS011;69207;47.502;18.940;2023-04-25T05:39:36;3.15;;;2.85;;
65753;SDS011;69207;47.502;18.940;2023-04-25T05:40:39;3.25;;;2.92;;
65753;SDS011;69207;47.502;18.940;2023-04-25T05:41:43;5.32;;;2.95;;
65753;SDS011;69207;47.502;18.940;2023-04-25T05:42:46;3.83;;;3.22;;
65753;SDS011;69207;47.502;18.940;2023-04-25T05:43:49;3.67;;;2.85;;
65753;SDS011;69207;47.502;18.940;2023-04-25T05:44:53;4.50;;;3.00;;
65753;SDS011;69207;47.502;18.940;2023-04-25T05:45:57;5.03;;;3.45;;
65753;SDS011;69207;47.502;18.940;2023-04-25T05:47:00;4.90;;;3.10;;
65753;SDS011;69207;47.502;18.940;2023-04-25T05:48:03;4.87;;;3.60;;
65753;SDS011;69207;47.502;18.940;2023-04-25T05:49:06;5.60;;;3.80;;
65753;SDS011;69207;47.502;18.940;2023-04-25T05:50:09;6.07;;;4.00;;
65753;SDS011;69207;47.502;18.940;2023-04-25T05:51:12;4.10;;;3.33;;
65753;SDS011;69207;47.502;18.940;2023-04-25T05:52:15;3.85;;;3.37;;
65753;SDS011;69207;47.502;18.940;2023-04-25T05:53:21;5.90;;;3.50;;
65753;SDS011;69207;47.502;18.940;2023-04-25T05:54:24;4.55;;;3.17;;
65753;SDS011;69207;47.502;18.940;2023-04-25T05:55:27;6.78;;;3.50;;
65753;SDS011;69207;47.502;18.940;2023-04-25T05:56:30;3.60;;;3.10;;
65753;SDS011;69207;47.502;18.940;2023-04-25T05:57:33;4.20;;;3.80;;
65753;SDS011;69207;47.502;18.940;2023-04-25T05:58:36;4.15;;;3.55;;
65753;SDS011;69207;47.502;18.940;2023-04-25T05:59:39;5.37;;;3.72;;
65753;SDS011;69207;47.502;18.940;2023-04-25T06:00:42;5.05;;;3.58;;
65753;SDS011;69207;47.502;18.940;2023-04-25T06:01:45;5.15;;;3.10;;
65753;SDS011;69207;47.502;18.940;2023-04-25T06:02:49;4.47;;;3.50;;
65753;SDS011;69207;47.502;18.940;2023-04-25T06:03:52;4.55;;;3.37;;
65753;SDS011;69207;47.502;18.940;2023-04-25T06:04:55;4.28;;;3.70;;
65753;SDS011;69207;47.502;18.940;2023-04-25T06:05:58;5.40;;;3.60;;
65753;SDS011;69207;47.502;18.940;2023-04-25T06:07:02;4.37;;;3.90;;
65753;SDS011;69207;47.502;18.940;2023-04-25T06:08:05;4.75;;;3.55;;
65753;SDS011;69207;47.502;18.940;2023-04-25T06:09:08;4.18;;;3.78;;
65753;SDS011;69207;47.502;18.940;2023-04-25T06:10:10;4.90;;;3.72;;
65753;SDS011;69207;47.502;18.940;2023-04-25T06:11:13;5.28;;;3.60;;
65753;SDS011;69207;47.502;18.940;2023-04-25T06:12:16;6.07;;;3.55;;
65753;SDS011;69207;47.502;18.940;2023-04-25T06:13:19;5.45;;;4.18;;
65753;SDS011;69207;47.502;18.940;2023-04-25T06:14:22;3.90;;;3.50;;
65753;SDS011;69207;47.502;18.940;2023-04-25T06:15:30;4.82;;;3.60;;
65753;SDS011;69207;47.502;18.940;2023-04-25T06:16:34;4.90;;;3.95;;